Austin (LCRA Redbud)'s Hourly Summary for Thursday, March 16, 2017
Hour Temp
(f)
RH
(%)
Solar Rad.
(MJ/m2)
Rainfall
(in)
Wind
(mph)
3/16/2017 12:00 AM 64 66 0 0 3.95
3/16/2017 1:00 AM 63 73 0 0 4.24
3/16/2017 2:00 AM 61 79 0 0 4.17
3/16/2017 3:00 AM 61 83 0 0 3.39
3/16/2017 4:00 AM 60 85 0 0 2.38
3/16/2017 5:00 AM 59 88 0 0 1.11
3/16/2017 6:00 AM 59 95 0 0 0.6
3/16/2017 7:00 AM 59 97 0 0.01 0.48
3/16/2017 8:00 AM 59 98 0 0 1.24
3/16/2017 9:00 AM 59 98 0.05 0 1.77
3/16/2017 10:00 AM 60 95 0.16 0 1.36
3/16/2017 11:00 AM 62 92 0.26 0 0.65
3/16/2017 12:00 PM 65 82 0.39 0 1.11
3/16/2017 1:00 PM 69 75 0.67 0 3.36
3/16/2017 2:00 PM 72 65 1.17 0 2.97
3/16/2017 3:00 PM 75 58 1.57 0 3.76
3/16/2017 4:00 PM 77 56 1.48 0 4.96
3/16/2017 5:00 PM 78 53 1.27 0 5.32
3/16/2017 6:00 PM 78 53 0.8 0 5.68
3/16/2017 7:00 PM 77 53 0.45 0 5.4
3/16/2017 8:00 PM 75 56 0.08 0 5.02
3/16/2017 9:00 PM 73 64 0 0 4.45
3/16/2017 10:00 PM 71 66 0 0 5.36
3/16/2017 11:00 PM 70 71 0 0 5.46
Data Summary 66 75 8.35 0.01 3.26